Terminal Aerodrome Forecast
Issued by NWS

Home | Current Version | Previous Version | Text Only | Print | Product List | Glossary On
Versions: 1 2 3 4 5 6 7 8 9 10 11 12 13 14 15 16 17 18 19
699
FTUS43 KDTX 081739
TAFMBS
TAF
KMBS 081739Z 0818/0918 27015G25KT P6SM BKN035 OVC080
     FM090300 28013KT P6SM OVC015
     FM091400 29012KT P6SM OVC025=

USA.gov is the U.S. government's official web portal to all federal, state and local government web resources and services.